Time;durP1;ratioP1;P1;durP2;ratioP2;P2;SDS_P1;SDS_P2;PMS_P1;PMS_P2;Temp;Humidity;BMP_temperature;BMP_pressure;BME280_temperature;BME280_humidity;BME280_pressure;Samples;Min_cycle;Max_cycle;Signal;HPM_P1;HPM_P2
2020/12/14 00:00:46;;;;;;;58.87;30.33;;;5.60;99.90;;;;;;5013007;28;20250;-50
2020/12/14 00:03:13;;;;;;;63.83;30.90;;;5.70;99.90;;;;;;5015804;28;20638;-49
2020/12/14 00:05:41;;;;;;;58.87;30.40;;;5.60;99.90;;;;;;5013090;28;20895;-49
2020/12/14 00:08:08;;;;;;;56.00;28.93;;;5.60;99.90;;;;;;5008477;28;20314;-51
2020/12/14 00:10:36;;;;;;;56.77;29.60;;;5.60;99.90;;;;;;5015029;28;20237;-49
2020/12/14 00:13:03;;;;;;;62.73;30.27;;;5.60;99.90;;;;;;5015836;28;21215;-50
2020/12/14 00:15:30;;;;;;;58.57;29.27;;;5.60;99.90;;;;;;5008160;28;20259;-49
2020/12/14 00:17:59;;;;;;;55.63;29.03;;;5.60;99.90;;;;;;5006736;28;20546;-50
2020/12/14 00:20:26;;;;;;;59.63;29.67;;;5.60;99.90;;;;;;5008469;28;20991;-49
2020/12/14 00:22:54;;;;;;;57.83;29.90;;;5.60;99.90;;;;;;5005894;28;20584;-49
2020/12/14 00:25:22;;;;;;;56.83;29.87;;;5.60;99.90;;;;;;5005994;28;20236;-50
2020/12/14 00:27:49;;;;;;;56.47;28.67;;;5.60;99.90;;;;;;5005760;28;20523;-49
2020/12/14 00:30:17;;;;;;;52.83;28.17;;;5.60;99.90;;;;;;5006202;28;20657;-49
2020/12/14 00:32:45;;;;;;;51.90;29.00;;;5.60;99.90;;;;;;5007122;28;20244;-49
2020/12/14 00:35:13;;;;;;;49.90;28.30;;;5.60;99.90;;;;;;5009712;28;20894;-51
2020/12/14 00:37:40;;;;;;;52.67;28.07;;;5.70;99.90;;;;;;5012685;28;20241;-50
2020/12/14 00:40:07;;;;;;;51.03;28.37;;;5.60;99.90;;;;;;5009225;28;20542;-50
2020/12/14 00:42:35;;;;;;;49.23;26.57;;;5.60;99.90;;;;;;5008824;28;20236;-49
2020/12/14 00:45:02;;;;;;;46.50;26.67;;;5.60;99.90;;;;;;5008853;28;22570;-49
2020/12/14 00:47:30;;;;;;;46.73;27.17;;;5.60;99.90;;;;;;5008529;28;20232;-49
2020/12/14 00:49:57;;;;;;;45.03;25.90;;;5.70;99.90;;;;;;5008659;28;20827;-49
2020/12/14 00:52:25;;;;;;;42.70;25.00;;;5.70;99.90;;;;;;5008218;28;20233;-50
2020/12/14 00:54:52;;;;;;;41.70;25.33;;;5.70;99.90;;;;;;4994708;28;20999;-49
2020/12/14 00:57:20;;;;;;;42.97;25.83;;;5.70;99.90;;;;;;4988954;28;20299;-51
2020/12/14 00:59:47;;;;;;;39.17;24.37;;;5.70;99.90;;;;;;5024611;28;20243;-49
2020/12/14 01:02:14;;;;;;;43.37;24.37;;;5.70;99.90;;;;;;5028663;28;20486;-50
2020/12/14 01:04:42;;;;;;;39.23;24.30;;;5.70;99.90;;;;;;5018460;28;20490;-48
2020/12/14 01:07:09;;;;;;;36.47;23.23;;;5.70;99.90;;;;;;5006289;28;20519;-49
2020/12/14 01:09:37;;;;;;;39.97;25.10;;;5.70;99.90;;;;;;5013956;28;20232;-49
2020/12/14 01:12:05;;;;;;;36.40;23.47;;;5.70;99.90;;;;;;5008379;28;20244;-49
2020/12/14 01:14:32;;;;;;;39.33;22.40;;;5.70;99.90;;;;;;5023869;28;20319;-51
2020/12/14 01:17:00;;;;;;;37.83;22.43;;;5.70;99.90;;;;;;5008736;28;20484;-50
2020/12/14 01:19:27;;;;;;;35.50;23.10;;;5.70;99.90;;;;;;5008501;28;20244;-50
2020/12/14 01:21:55;;;;;;;35.67;22.63;;;5.80;99.90;;;;;;5008126;28;20476;-50
2020/12/14 01:24:22;;;;;;;35.53;22.43;;;5.70;99.90;;;;;;5008466;28;20691;-49
2020/12/14 01:26:50;;;;;;;34.73;22.67;;;5.70;99.90;;;;;;5008401;28;20233;-54
2020/12/14 01:29:18;;;;;;;31.97;22.13;;;5.70;99.90;;;;;;5007029;28;20327;-50
2020/12/14 01:31:45;;;;;;;37.33;22.73;;;5.70;99.90;;;;;;5008167;28;20659;-54
2020/12/14 01:34:13;;;;;;;32.23;20.80;;;5.70;99.90;;;;;;5012143;28;20243;-52
2020/12/14 01:36:40;;;;;;;35.60;22.00;;;5.70;99.90;;;;;;5028552;28;20561;-53
2020/12/14 01:39:08;;;;;;;34.40;21.80;;;5.60;99.90;;;;;;5028167;28;20494;-53
2020/12/14 01:41:35;;;;;;;32.50;21.40;;;5.60;99.90;;;;;;5027629;28;20707;-52
2020/12/14 01:44:03;;;;;;;36.27;22.70;;;5.60;99.90;;;;;;5025851;28;20255;-49
2020/12/14 01:46:32;;;;;;;34.17;22.17;;;5.60;99.90;;;;;;5007868;28;20241;-49
2020/12/14 01:49:00;;;;;;;34.80;21.87;;;5.60;99.90;;;;;;4997376;28;20510;-49
2020/12/14 01:51:30;;;;;;;29.63;21.07;;;5.60;99.90;;;;;;5007759;28;20542;-49
2020/12/14 01:54:05;;;;;;;32.30;21.67;;;5.60;99.90;;;;;;5008219;28;20240;-49
2020/12/14 01:56:32;;;;;;;31.17;20.57;;;5.60;99.90;;;;;;5008091;28;20235;-50
2020/12/14 01:59:00;;;;;;;30.53;20.57;;;5.60;99.90;;;;;;5008167;28;20479;-49
2020/12/14 02:01:28;;;;;;;30.17;20.23;;;5.60;99.90;;;;;;5007535;28;20294;-51
2020/12/14 02:03:57;;;;;;;30.20;20.30;;;5.60;99.90;;;;;;5006711;28;20233;-49
2020/12/14 02:06:24;;;;;;;28.83;19.10;;;5.60;99.90;;;;;;5006392;28;20268;-50
2020/12/14 02:08:51;;;;;;;29.83;19.13;;;5.50;99.90;;;;;;4999967;28;20597;-50
2020/12/14 02:11:19;;;;;;;28.63;20.07;;;5.60;99.90;;;;;;5010312;28;20537;-49
2020/12/14 02:13:48;;;;;;;28.17;19.70;;;5.60;99.90;;;;;;5011061;28;20552;-49
2020/12/14 02:16:16;;;;;;;29.13;19.23;;;5.60;99.90;;;;;;5011996;28;20472;-50
2020/12/14 02:18:44;;;;;;;27.27;17.70;;;5.60;99.90;;;;;;5011240;28;20511;-49
2020/12/14 02:21:15;;;;;;;25.27;18.23;;;5.60;99.90;;;;;;5011920;28;20476;-50
2020/12/14 02:23:43;;;;;;;25.23;17.60;;;5.60;99.90;;;;;;5011792;28;20480;-50
2020/12/14 02:26:11;;;;;;;26.73;17.67;;;5.60;99.90;;;;;;5011851;28;20479;-49
2020/12/14 02:28:39;;;;;;;26.37;18.03;;;5.60;99.90;;;;;;5011607;28;20544;-51
2020/12/14 02:31:06;;;;;;;26.37;17.93;;;5.60;99.90;;;;;;5011111;28;20530;-49
2020/12/14 02:33:34;;;;;;;26.07;17.80;;;5.60;99.90;;;;;;5011075;28;20480;-49
2020/12/14 02:36:01;;;;;;;24.77;17.77;;;5.60;99.90;;;;;;5011639;28;20495;-50
2020/12/14 02:38:29;;;;;;;28.37;18.53;;;5.60;99.90;;;;;;5011235;28;20849;-49
2020/12/14 02:40:56;;;;;;;25.17;17.00;;;5.60;99.90;;;;;;5010870;28;20476;-50
2020/12/14 02:43:24;;;;;;;24.67;17.33;;;5.60;99.90;;;;;;5011305;28;20245;-49
2020/12/14 02:45:53;;;;;;;25.03;17.83;;;5.60;99.90;;;;;;5010823;28;20245;-51
2020/12/14 02:48:20;;;;;;;23.33;16.80;;;5.60;99.90;;;;;;5011136;28;20320;-50
2020/12/14 02:50:48;;;;;;;22.40;16.67;;;5.60;99.90;;;;;;5009437;28;20248;-49
2020/12/14 02:53:16;;;;;;;24.13;17.17;;;5.60;99.90;;;;;;5010939;28;20713;-50
2020/12/14 02:55:43;;;;;;;24.87;17.20;;;5.60;99.90;;;;;;4996609;28;20512;-49
2020/12/14 02:58:10;;;;;;;25.00;18.00;;;5.60;99.90;;;;;;4992125;28;20484;-49
2020/12/14 03:00:39;;;;;;;22.80;16.57;;;5.60;99.90;;;;;;5013117;28;20498;-49
2020/12/14 03:03:06;;;;;;;20.63;15.67;;;5.60;99.90;;;;;;5009587;28;20237;-50
2020/12/14 03:05:33;;;;;;;25.23;16.57;;;5.60;99.90;;;;;;5007356;28;20958;-49
2020/12/14 03:08:01;;;;;;;22.70;16.20;;;5.60;99.90;;;;;;5022337;28;20243;-49
2020/12/14 03:10:28;;;;;;;24.83;17.03;;;5.60;99.90;;;;;;5030201;28;20670;-49
2020/12/14 03:12:55;;;;;;;25.03;16.10;;;5.60;99.90;;;;;;5022106;28;20839;-50
2020/12/14 03:15:22;;;;;;;23.13;16.00;;;5.60;99.90;;;;;;5030457;28;20236;-50
2020/12/14 03:17:51;;;;;;;23.27;16.63;;;5.60;99.90;;;;;;5030332;28;20540;-50
2020/12/14 03:20:18;;;;;;;22.20;15.83;;;5.60;99.90;;;;;;5030289;28;20647;-49
2020/12/14 03:22:45;;;;;;;22.43;15.50;;;5.60;99.90;;;;;;5012703;28;20538;-51
2020/12/14 03:25:13;;;;;;;21.10;15.47;;;5.60;99.90;;;;;;5011084;28;20585;-50
2020/12/14 03:27:40;;;;;;;20.60;15.10;;;5.60;99.90;;;;;;5010185;28;20543;-49
2020/12/14 03:30:07;;;;;;;19.43;14.40;;;5.60;99.90;;;;;;5010351;28;20488;-49
2020/12/14 03:32:34;;;;;;;21.00;14.60;;;5.60;99.90;;;;;;5009929;28;20257;-51
2020/12/14 03:35:03;;;;;;;19.70;14.47;;;5.60;99.90;;;;;;5010310;28;20984;-49
2020/12/14 03:37:30;;;;;;;21.23;14.13;;;5.70;99.90;;;;;;5010110;28;20304;-52
2020/12/14 03:39:58;;;;;;;19.53;14.70;;;5.70;99.90;;;;;;5001506;28;20244;-50
2020/12/14 03:42:25;;;;;;;17.93;13.23;;;5.60;99.90;;;;;;5009849;28;20247;-50
2020/12/14 03:44:53;;;;;;;17.47;13.63;;;5.70;99.90;;;;;;5009622;28;20572;-49
2020/12/14 03:47:20;;;;;;;19.10;13.90;;;5.60;99.90;;;;;;5010147;28;20237;-49
2020/12/14 03:49:47;;;;;;;18.70;13.37;;;5.70;99.90;;;;;;5010281;28;20579;-50
2020/12/14 03:52:16;;;;;;;20.90;14.07;;;5.70;99.90;;;;;;5029490;28;20479;-49
2020/12/14 03:54:43;;;;;;;18.07;13.07;;;5.60;99.90;;;;;;5029982;28;20240;-49
2020/12/14 03:57:11;;;;;;;18.50;13.90;;;5.70;99.90;;;;;;5029559;28;20246;-51
2020/12/14 03:59:38;;;;;;;17.33;12.57;;;5.60;99.90;;;;;;5022526;28;20266;-50
2020/12/14 04:02:05;;;;;;;18.90;12.70;;;5.60;99.90;;;;;;5007200;28;20256;-50
2020/12/14 04:04:33;;;;;;;15.47;11.60;;;5.60;99.90;;;;;;5002327;28;21002;-51
2020/12/14 04:07:00;;;;;;;17.00;11.73;;;5.60;99.90;;;;;;5008631;28;20233;-49
2020/12/14 04:09:29;;;;;;;16.10;12.03;;;5.60;99.90;;;;;;5008889;28;20367;-49
2020/12/14 04:11:56;;;;;;;17.10;12.97;;;5.60;99.90;;;;;;5009389;28;20696;-50
2020/12/14 04:14:23;;;;;;;14.07;11.27;;;5.60;99.90;;;;;;5009728;28;20550;-49
2020/12/14 04:16:52;;;;;;;15.83;12.00;;;5.60;99.90;;;;;;5009528;28;20245;-49
2020/12/14 04:19:22;;;;;;;16.73;12.13;;;5.60;99.90;;;;;;5009601;28;20495;-50
2020/12/14 04:21:51;;;;;;;15.90;11.57;;;5.60;99.90;;;;;;5009232;28;20729;-50
2020/12/14 04:24:19;;;;;;;14.97;11.67;;;5.60;99.90;;;;;;5009430;28;20781;-50
2020/12/14 04:26:53;;;;;;;14.67;10.70;;;5.60;99.90;;;;;;5007884;28;20614;-50
2020/12/14 04:29:21;;;;;;;14.37;11.43;;;5.60;99.90;;;;;;5009670;28;20479;-51
2020/12/14 04:31:50;;;;;;;16.15;13.70;;;5.60;99.90;;;;;;5008019;28;20804;-49
2020/12/14 04:34:18;;;;;;;16.53;11.97;;;5.60;99.90;;;;;;5009172;28;20236;-51
2020/12/14 04:36:46;;;;;;;15.03;11.90;;;5.60;99.90;;;;;;5009349;28;20295;-50
2020/12/14 04:39:14;;;;;;;15.07;10.80;;;5.60;99.90;;;;;;5009300;28;20229;-52
2020/12/14 04:41:42;;;;;;;15.07;11.47;;;5.70;99.90;;;;;;5009211;28;20562;-49
2020/12/14 04:44:11;;;;;;;14.80;10.67;;;5.70;99.90;;;;;;5009523;28;20642;-51
2020/12/14 04:46:39;;;;;;;14.83;11.17;;;5.60;99.90;;;;;;5008798;28;20301;-52
2020/12/14 04:49:08;;;;;;;15.80;11.33;;;5.60;99.90;;;;;;5009400;28;20231;-49
2020/12/14 04:51:38;;;;;;;13.80;10.90;;;5.70;99.90;;;;;;5008829;28;20537;-49
2020/12/14 04:54:06;;;;;;;19.93;11.43;;;5.60;99.90;;;;;;5009323;28;20475;-50
2020/12/14 04:56:40;;;;;;;14.73;11.50;;;5.60;99.90;;;;;;5004483;28;20541;-49
2020/12/14 04:59:09;;;;;;;16.43;11.10;;;5.60;99.90;;;;;;5006973;28;20479;-49
2020/12/14 05:01:38;;;;;;;14.93;11.03;;;5.70;99.90;;;;;;5019487;28;20239;-49
2020/12/14 05:04:05;;;;;;;16.30;11.50;;;5.70;99.90;;;;;;5020069;28;20474;-49
2020/12/14 05:06:50;;;;;;;13.43;10.67;;;5.70;99.90;;;;;;5027202;28;20644;-50
2020/12/14 05:09:20;;;;;;;16.83;11.33;;;5.70;99.90;;;;;;5028296;28;20475;-50
2020/12/14 05:11:48;;;;;;;16.00;11.57;;;5.70;99.90;;;;;;5028082;28;20486;-50
2020/12/14 05:14:19;;;;;;;16.97;11.97;;;5.70;99.90;;;;;;5028429;28;20883;-49
2020/12/14 05:16:47;;;;;;;15.90;11.67;;;5.70;99.90;;;;;;5015757;28;20549;-49
2020/12/14 05:19:23;;;;;;;16.73;11.33;;;5.70;99.90;;;;;;5008687;28;20800;-49
2020/12/14 05:21:54;;;;;;;15.30;11.77;;;5.70;99.90;;;;;;5008268;28;20256;-50
2020/12/14 05:24:26;;;;;;;13.13;10.90;;;5.70;99.90;;;;;;5008606;28;20703;-50
2020/12/14 05:26:55;;;;;;;14.03;10.53;;;5.70;99.90;;;;;;5009134;28;20313;-51
2020/12/14 05:29:27;;;;;;;17.27;10.93;;;5.70;99.90;;;;;;5008644;28;20232;-49
2020/12/14 05:32:07;;;;;;;14.93;11.00;;;5.70;99.90;;;;;;5008254;28;20496;-51
2020/12/14 05:34:37;;;;;;;13.17;10.10;;;5.70;99.90;;;;;;5009780;28;20596;-50
2020/12/14 05:37:07;;;;;;;13.30;11.00;;;5.80;99.90;;;;;;5008472;28;20241;-52
2020/12/14 05:39:35;;;;;;;16.07;10.63;;;5.80;99.90;;;;;;5010813;28;20480;-51
2020/12/14 05:42:12;;;;;;;13.20;10.80;;;5.80;99.90;;;;;;5008221;28;20673;-49
2020/12/14 05:44:42;;;;;;;17.53;9.83;;;5.80;99.90;;;;;;5009876;28;20600;-51
2020/12/14 05:47:23;;;;;;;12.00;10.27;;;5.70;99.90;;;;;;5012034;28;20383;-50
2020/12/14 05:49:52;;;;;;;14.80;10.33;;;5.80;99.90;;;;;;5008083;28;20815;-49
2020/12/14 05:52:22;;;;;;;13.47;10.40;;;5.80;99.90;;;;;;4996491;28;20475;-52
2020/12/14 05:54:55;;;;;;;13.73;10.33;;;5.80;99.90;;;;;;5011134;28;20604;-54
2020/12/14 05:57:32;;;;;;;12.90;9.77;;;5.80;99.90;;;;;;5015336;28;20541;-50
2020/12/14 06:00:05;;;;;;;13.20;10.33;;;5.80;99.90;;;;;;5025927;28;20520;-50
2020/12/14 06:02:34;;;;;;;16.13;11.23;;;5.80;99.90;;;;;;5015878;28;20248;-50
2020/12/14 06:05:03;;;;;;;15.20;10.07;;;5.80;99.90;;;;;;5012031;28;20778;-50
2020/12/14 06:07:33;;;;;;;12.37;9.43;;;5.80;99.90;;;;;;5011911;28;20293;-53
2020/12/14 06:10:10;;;;;;;12.70;9.33;;;5.80;99.90;;;;;;5012136;28;20307;-49
2020/12/14 06:12:41;;;;;;;13.97;9.87;;;5.80;99.90;;;;;;5012157;28;20236;-49
2020/12/14 06:15:11;;;;;;;13.13;9.60;;;5.90;99.90;;;;;;5011753;28;20467;-50
2020/12/14 06:17:40;;;;;;;13.60;10.27;;;5.90;99.90;;;;;;5012008;28;20480;-51
2020/12/14 06:20:13;;;;;;;13.47;9.70;;;5.90;99.90;;;;;;5011962;28;20484;-50
2020/12/14 06:22:46;;;;;;;11.77;10.13;;;5.90;99.90;;;;;;5015534;28;20548;-49
2020/12/14 06:25:16;;;;;;;14.83;9.20;;;5.80;99.90;;;;;;5015030;28;20255;-49
2020/12/14 06:27:43;;;;;;;12.60;8.73;;;5.80;99.90;;;;;;5012011;28;20243;-49
2020/12/14 06:30:32;;;;;;;11.27;9.60;;;5.90;99.90;;;;;;5009896;28;20689;-49
2020/12/14 06:33:01;;;;;;;12.23;8.87;;;5.80;99.90;;;;;;5025588;28;20486;-51
2020/12/14 06:35:48;;;;;;;11.73;9.03;;;5.80;99.90;;;;;;5027026;28;20478;-50
2020/12/14 06:38:38;;;;;;;11.30;9.10;;;5.80;99.90;;;;;;5007662;28;20475;-50
2020/12/14 06:41:13;;;;;;;12.70;8.97;;;5.80;99.90;;;;;;5007026;28;20530;-49
2020/12/14 06:43:44;;;;;;;12.40;8.97;;;5.80;99.90;;;;;;5007655;28;20475;-49
2020/12/14 06:46:12;;;;;;;13.40;8.83;;;5.90;99.90;;;;;;5007110;28;20997;-49
2020/12/14 06:48:45;;;;;;;12.70;8.60;;;5.90;99.90;;;;;;5013252;28;20474;-50
2020/12/14 06:51:15;;;;;;;9.97;8.70;;;5.90;99.90;;;;;;5015435;28;20482;-49
2020/12/14 06:53:46;;;;;;;11.90;8.37;;;5.90;99.90;;;;;;5009031;28;20483;-49
2020/12/14 06:56:15;;;;;;;12.50;8.33;;;5.90;99.90;;;;;;5019884;28;20487;-49
2020/12/14 06:58:45;;;;;;;11.23;8.23;;;5.90;99.90;;;;;;5022493;28;20484;-50
2020/12/14 07:01:34;;;;;;;10.77;8.23;;;5.90;99.90;;;;;;5026826;28;20552;-50
2020/12/14 07:04:08;;;;;;;9.30;7.30;;;5.90;99.90;;;;;;5030509;28;20502;-49
2020/12/14 07:06:36;;;;;;;9.50;7.37;;;5.90;99.90;;;;;;5030442;28;20537;-49
2020/12/14 07:09:26;;;;;;;9.00;7.53;;;6.00;99.90;;;;;;5030195;28;20649;-49
2020/12/14 07:11:54;;;;;;;10.30;7.93;;;6.00;99.90;;;;;;5029467;28;20483;-50
2020/12/14 07:14:29;;;;;;;10.37;7.80;;;6.00;99.90;;;;;;5029916;28;20262;-54
2020/12/14 07:16:59;;;;;;;10.20;7.83;;;6.00;99.90;;;;;;5005303;28;20437;-50
2020/12/14 07:19:35;;;;;;;10.80;7.43;;;6.00;99.90;;;;;;5004961;28;20230;-50
2020/12/14 07:22:04;;;;;;;9.53;7.07;;;6.00;99.90;;;;;;5008350;28;20244;-49
2020/12/14 07:24:35;;;;;;;8.87;7.37;;;6.00;99.90;;;;;;5005589;28;20636;-50
2020/12/14 07:27:02;;;;;;;9.37;7.33;;;6.00;99.90;;;;;;5005512;28;20508;-50
2020/12/14 07:29:30;;;;;;;12.50;7.20;;;6.00;99.90;;;;;;5006772;28;20293;-50
2020/12/14 07:32:04;;;;;;;9.30;7.10;;;6.00;99.90;;;;;;5008387;28;20550;-49
2020/12/14 07:34:31;;;;;;;9.23;7.17;;;6.00;99.90;;;;;;5004133;28;21007;-50
2020/12/14 07:36:59;;;;;;;9.03;6.63;;;6.00;99.90;;;;;;5027967;28;20485;-49
2020/12/14 07:39:27;;;;;;;8.80;6.53;;;6.00;99.90;;;;;;5026028;28;20556;-49
2020/12/14 07:41:54;;;;;;;9.70;7.20;;;6.00;99.90;;;;;;5011049;28;20898;-52
2020/12/14 07:44:26;;;;;;;9.03;6.80;;;6.20;99.90;;;;;;5010182;28;20244;-51
2020/12/14 07:46:53;;;;;;;8.27;6.70;;;6.10;99.90;;;;;;5001221;28;20488;-50
2020/12/14 07:49:23;;;;;;;10.87;7.10;;;6.20;99.90;;;;;;5005885;28;20480;-51
2020/12/14 07:51:51;;;;;;;11.73;7.27;;;6.20;99.90;;;;;;4998155;28;20256;-49
2020/12/14 07:54:20;;;;;;;8.27;6.27;;;6.10;99.90;;;;;;5000970;28;20476;-50
2020/12/14 07:56:52;;;;;;;8.43;6.37;;;6.30;99.90;;;;;;5016267;28;20484;-51
2020/12/14 07:59:23;;;;;;;9.97;6.37;;;6.20;99.90;;;;;;4998933;28;20520;-50
2020/12/14 08:01:51;;;;;;;7.90;7.03;;;6.20;99.90;;;;;;4996581;28;20247;-52
2020/12/14 08:04:32;;;;;;;8.53;6.87;;;6.20;99.90;;;;;;5005852;28;21171;-50
2020/12/14 08:07:00;;;;;;;9.37;6.60;;;6.20;99.90;;;;;;4997938;28;20574;-52
2020/12/14 08:09:31;;;;;;;9.43;6.83;;;6.20;99.90;;;;;;4998757;28;20791;-50
2020/12/14 08:11:59;;;;;;;9.07;6.33;;;6.10;99.90;;;;;;4996880;28;20272;-51
2020/12/14 08:14:28;;;;;;;7.40;6.07;;;6.20;99.90;;;;;;5006121;28;20500;-49
2020/12/14 08:16:55;;;;;;;7.53;6.30;;;6.20;99.90;;;;;;5010120;28;20722;-52
2020/12/14 08:19:23;;;;;;;8.30;6.73;;;6.30;99.90;;;;;;4998893;28;20245;-52
2020/12/14 08:22:03;;;;;;;9.87;6.30;;;6.20;99.90;;;;;;5000534;28;20237;-49
2020/12/14 08:24:30;;;;;;;7.33;6.53;;;6.20;99.90;;;;;;4997781;28;20875;-50
2020/12/14 08:27:06;;;;;;;7.40;6.20;;;6.20;99.90;;;;;;5003511;28;20242;-51
2020/12/14 08:29:35;;;;;;;9.10;6.07;;;6.20;99.90;;;;;;5015202;28;20354;-49
2020/12/14 08:32:03;;;;;;;8.90;6.60;;;6.20;99.90;;;;;;4999244;28;20228;-49
2020/12/14 08:34:33;;;;;;;8.27;5.67;;;6.30;99.90;;;;;;5006032;28;20681;-50
2020/12/14 08:37:03;;;;;;;7.50;5.70;;;6.30;99.90;;;;;;5003325;28;20245;-54
2020/12/14 08:39:31;;;;;;;8.60;5.93;;;6.30;99.90;;;;;;4997919;28;20498;-51
2020/12/14 08:42:08;;;;;;;8.13;5.20;;;6.30;99.90;;;;;;4995175;28;20311;-51
2020/12/14 08:44:36;;;;;;;8.10;5.27;;;6.40;99.90;;;;;;4997410;28;20293;-50
2020/12/14 08:47:12;;;;;;;6.90;5.17;;;6.40;99.90;;;;;;5003466;28;20507;-49
2020/12/14 08:49:40;;;;;;;8.97;5.53;;;6.40;99.90;;;;;;5003112;28;20240;-49
2020/12/14 08:52:09;;;;;;;6.83;5.30;;;6.40;99.90;;;;;;4999349;28;20248;-51
2020/12/14 08:54:36;;;;;;;6.07;5.03;;;6.40;99.90;;;;;;4998390;28;21952;-51
2020/12/14 08:57:03;;;;;;;6.97;5.20;;;6.40;99.90;;;;;;5005057;28;20243;-50
2020/12/14 08:59:32;;;;;;;6.67;4.70;;;6.40;99.90;;;;;;4998419;28;20943;-50
2020/12/14 09:02:04;;;;;;;6.97;5.27;;;6.40;99.90;;;;;;4999739;28;20240;-49
2020/12/14 09:04:35;;;;;;;8.43;4.97;;;6.40;99.90;;;;;;5005514;28;20565;-49
2020/12/14 09:07:02;;;;;;;6.70;4.77;;;6.40;99.90;;;;;;5012635;28;20239;-50
2020/12/14 09:09:32;;;;;;;6.30;5.10;;;6.40;99.90;;;;;;5003813;28;20318;-50
2020/12/14 09:12:01;;;;;;;6.37;5.63;;;6.40;99.90;;;;;;4995111;28;20903;-51
2020/12/14 09:14:31;;;;;;;10.47;5.80;;;6.40;99.90;;;;;;5012720;28;20487;-50
2020/12/14 09:17:01;;;;;;;8.03;5.30;;;6.40;99.90;;;;;;4997366;28;20241;-54
2020/12/14 09:19:31;;;;;;;6.00;5.33;;;6.40;99.90;;;;;;5005344;28;20254;-54
2020/12/14 09:22:00;;;;;;;6.43;5.53;;;6.40;99.90;;;;;;4995273;28;20245;-50
2020/12/14 09:24:30;;;;;;;9.13;5.40;;;6.40;99.90;;;;;;4998028;28;20229;-52
2020/12/14 09:27:05;;;;;;;8.73;5.93;;;6.30;99.90;;;;;;5004150;28;20294;-50
2020/12/14 09:29:33;;;;;;;7.50;6.17;;;6.30;99.90;;;;;;4997747;28;20243;-49
2020/12/14 09:32:02;;;;;;;8.13;5.90;;;6.30;99.90;;;;;;4995190;28;20247;-51
2020/12/14 09:34:30;;;;;;;10.60;6.13;;;6.30;99.90;;;;;;4999197;28;20327;-52
2020/12/14 09:37:00;;;;;;;7.07;5.47;;;6.30;99.90;;;;;;4998400;28;20241;-51
2020/12/14 09:39:29;;;;;;;9.03;6.00;;;6.30;99.90;;;;;;5014347;28;20243;-50
2020/12/14 09:41:57;;;;;;;8.13;6.00;;;6.30;99.90;;;;;;4997411;28;20248;-50
2020/12/14 09:44:27;;;;;;;8.53;6.17;;;6.30;99.90;;;;;;5000489;28;20670;-49
2020/12/14 09:46:55;;;;;;;7.10;5.97;;;6.30;99.90;;;;;;5009292;28;20721;-51
2020/12/14 09:49:23;;;;;;;7.07;5.90;;;6.30;99.90;;;;;;5001323;28;20879;-51
2020/12/14 09:51:50;;;;;;;6.77;5.87;;;6.30;99.90;;;;;;5001060;28;20331;-53
2020/12/14 09:54:18;;;;;;;8.00;6.47;;;6.30;99.90;;;;;;4998009;28;20744;-53
2020/12/14 09:56:45;;;;;;;6.57;5.80;;;6.30;99.90;;;;;;4996952;28;20708;-50
2020/12/14 09:59:12;;;;;;;12.17;6.50;;;6.30;99.90;;;;;;5001959;28;20252;-49
2020/12/14 10:01:41;;;;;;;7.23;6.53;;;6.30;99.90;;;;;;4994351;28;20641;-50
2020/12/14 10:04:08;;;;;;;8.40;6.50;;;6.30;99.90;;;;;;4996881;28;20551;-49
2020/12/14 10:06:36;;;;;;;6.33;5.77;;;6.30;99.90;;;;;;4977145;28;20260;-50
2020/12/14 10:09:04;;;;;;;9.10;6.93;;;6.30;99.90;;;;;;4980937;28;20246;-50
2020/12/14 10:11:34;;;;;;;8.50;7.03;;;6.30;99.90;;;;;;4974890;28;20246;-53
2020/12/14 10:14:02;;;;;;;7.53;6.50;;;6.30;99.90;;;;;;4978007;28;20614;-52
2020/12/14 10:16:29;;;;;;;8.47;6.97;;;6.30;99.90;;;;;;4977787;28;20273;-51
2020/12/14 10:19:12;;;;;;;9.90;6.33;;;6.30;99.90;;;;;;4996657;28;20637;-50
2020/12/14 10:21:40;;;;;;;7.90;6.80;;;6.30;99.90;;;;;;4994345;28;20232;-51
2020/12/14 10:24:08;;;;;;;8.37;6.40;;;6.30;99.90;;;;;;5010433;28;20245;-50
2020/12/14 10:26:36;;;;;;;8.10;6.60;;;6.40;99.90;;;;;;4996439;28;20273;-50
2020/12/14 10:29:04;;;;;;;7.57;6.77;;;6.40;99.90;;;;;;4997142;28;20756;-50
2020/12/14 10:31:32;;;;;;;8.83;7.17;;;6.40;99.90;;;;;;5015896;28;20283;-49
2020/12/14 10:34:01;;;;;;;8.70;6.87;;;6.40;99.90;;;;;;5010660;28;20664;-51
2020/12/14 10:36:29;;;;;;;8.27;6.80;;;6.40;99.90;;;;;;5005858;28;20324;-49
2020/12/14 10:38:56;;;;;;;9.37;7.00;;;6.40;99.90;;;;;;5001426;28;20373;-50
2020/12/14 10:41:24;;;;;;;8.77;6.50;;;6.40;99.90;;;;;;5011243;28;20744;-50
2020/12/14 10:43:51;;;;;;;9.13;6.60;;;6.40;99.90;;;;;;5006480;28;20256;-52
2020/12/14 10:46:24;;;;;;;9.57;6.80;;;6.40;99.90;;;;;;5009924;28;20244;-50
2020/12/14 10:48:52;;;;;;;9.63;6.53;;;6.40;99.90;;;;;;4981952;28;20677;-50
2020/12/14 10:51:19;;;;;;;11.73;6.77;;;6.50;99.90;;;;;;4981634;28;20350;-52
2020/12/14 10:53:48;;;;;;;11.17;6.67;;;6.50;99.90;;;;;;4980869;28;20488;-50
2020/12/14 10:56:16;;;;;;;10.13;6.83;;;6.50;99.90;;;;;;4993402;28;20233;-50
2020/12/14 10:58:43;;;;;;;8.30;6.40;;;6.50;99.90;;;;;;4992765;28;20255;-50
2020/12/14 11:01:12;;;;;;;9.03;6.27;;;6.50;99.90;;;;;;4979895;28;20264;-53
2020/12/14 11:03:39;;;;;;;8.57;6.13;;;6.50;99.90;;;;;;4994742;28;20495;-50
2020/12/14 11:06:07;;;;;;;10.00;6.07;;;6.50;99.90;;;;;;4979696;28;20367;-51
2020/12/14 11:08:34;;;;;;;9.80;6.50;;;6.50;99.90;;;;;;4979868;28;20636;-50
2020/12/14 11:11:02;;;;;;;6.63;5.80;;;6.60;99.90;;;;;;4977002;28;20361;-52
2020/12/14 11:13:30;;;;;;;8.03;5.90;;;6.50;99.90;;;;;;4980859;28;20277;-53
2020/12/14 11:15:59;;;;;;;9.87;6.13;;;6.50;99.90;;;;;;4988553;28;21055;-49
2020/12/14 11:18:27;;;;;;;8.07;5.90;;;6.50;99.90;;;;;;4981045;28;20233;-51
2020/12/14 11:20:54;;;;;;;7.37;5.83;;;6.50;99.90;;;;;;4991452;28;20243;-49
2020/12/14 11:23:22;;;;;;;10.30;6.23;;;6.60;99.90;;;;;;4980318;28;20323;-51
2020/12/14 11:25:50;;;;;;;7.63;5.60;;;6.60;99.90;;;;;;4997299;28;20241;-50
2020/12/14 11:28:20;;;;;;;7.30;6.20;;;6.70;99.90;;;;;;4990682;28;20661;-50
2020/12/14 11:30:47;;;;;;;8.70;6.57;;;6.70;99.90;;;;;;4987884;28;20245;-52
2020/12/14 11:33:15;;;;;;;9.43;6.03;;;6.80;99.90;;;;;;4984939;28;20268;-50
2020/12/14 11:35:44;;;;;;;6.80;6.10;;;6.70;99.90;;;;;;5005183;28;20342;-52
2020/12/14 11:38:11;;;;;;;10.17;5.87;;;6.80;99.90;;;;;;4998939;28;20248;-53
2020/12/14 11:40:38;;;;;;;7.93;5.90;;;6.80;99.90;;;;;;5003204;28;20244;-50
2020/12/14 11:43:06;;;;;;;7.83;5.73;;;6.90;99.90;;;;;;5005168;28;20315;-49
2020/12/14 11:45:45;;;;;;;10.50;6.83;;;6.90;99.90;;;;;;5002499;28;20254;-50
2020/12/14 11:48:14;;;;;;;8.13;5.73;;;7.00;99.90;;;;;;4997758;28;20323;-50
2020/12/14 11:50:41;;;;;;;8.30;5.53;;;7.00;99.90;;;;;;5008231;28;20268;-49
2020/12/14 11:53:09;;;;;;;7.43;5.63;;;7.00;99.90;;;;;;5016820;28;20596;-49
2020/12/14 11:55:36;;;;;;;9.57;5.77;;;7.10;99.90;;;;;;5007538;28;20288;-49
2020/12/14 11:58:04;;;;;;;9.37;5.90;;;7.10;99.90;;;;;;5004541;28;20243;-49
2020/12/14 12:00:32;;;;;;;6.97;5.87;;;7.10;99.90;;;;;;4998850;28;20332;-49
2020/12/14 12:03:00;;;;;;;6.73;6.03;;;7.20;99.90;;;;;;5011521;28;20237;-52
2020/12/14 12:05:29;;;;;;;8.97;6.43;;;7.20;99.90;;;;;;5009182;28;20275;-50
2020/12/14 12:07:56;;;;;;;9.13;7.20;;;7.20;99.90;;;;;;5013800;28;20654;-50
2020/12/14 12:10:25;;;;;;;8.67;6.40;;;7.30;99.90;;;;;;5007500;28;20241;-53
2020/12/14 12:12:52;;;;;;;10.50;5.60;;;7.30;99.90;;;;;;5000882;28;20719;-52
2020/12/14 12:15:20;;;;;;;8.20;6.20;;;7.30;99.90;;;;;;4992736;28;20244;-50
2020/12/14 12:17:47;;;;;;;7.27;5.73;;;7.30;99.90;;;;;;4997759;28;20339;-49
2020/12/14 12:20:15;;;;;;;9.27;6.20;;;7.30;99.90;;;;;;5005886;28;20268;-50
2020/12/14 12:22:43;;;;;;;11.80;6.40;;;7.30;99.90;;;;;;4987004;28;20237;-50
2020/12/14 12:25:11;;;;;;;8.17;6.47;;;7.30;99.90;;;;;;5002944;28;20327;-51
2020/12/14 12:27:38;;;;;;;9.20;6.77;;;7.40;99.90;;;;;;4996098;28;20253;-52
2020/12/14 12:30:06;;;;;;;10.17;6.27;;;7.30;99.90;;;;;;4996133;28;20237;-50
2020/12/14 12:32:33;;;;;;;12.10;7.77;;;7.40;99.90;;;;;;4991212;28;20225;-50
2020/12/14 12:35:01;;;;;;;9.07;6.23;;;7.40;99.90;;;;;;5004471;28;20272;-50
2020/12/14 12:37:29;;;;;;;10.13;5.77;;;7.40;99.90;;;;;;5000699;28;21191;-50
2020/12/14 12:39:56;;;;;;;7.10;6.27;;;7.40;99.90;;;;;;4993880;28;20638;-50
2020/12/14 12:42:23;;;;;;;8.37;5.90;;;7.40;99.90;;;;;;4991318;28;20260;-50
2020/12/14 12:44:51;;;;;;;7.70;5.63;;;7.40;99.90;;;;;;4992318;28;20887;-50
2020/12/14 12:47:18;;;;;;;9.00;5.60;;;7.50;99.90;;;;;;4997354;28;20330;-52
2020/12/14 12:49:46;;;;;;;8.13;5.47;;;7.40;99.90;;;;;;4996508;28;20697;-49
2020/12/14 12:52:13;;;;;;;8.20;5.77;;;7.50;99.90;;;;;;4976697;28;20238;-49
2020/12/14 12:54:41;;;;;;;6.27;5.53;;;7.50;99.90;;;;;;4993094;28;20241;-49